createdAt,value
2022-12-04T00:00:45.962Z,42.80
2022-12-04T00:02:54.987Z,39.20
2022-12-04T00:04:56.846Z,32.72
2022-12-04T00:06:59.291Z,36.20
2022-12-04T00:09:01.208Z,43.87
2022-12-04T00:11:07.237Z,42.88
2022-12-04T00:13:09.751Z,39.58
2022-12-04T00:15:27.248Z,40.95
2022-12-04T00:17:29.474Z,42.20
2022-12-04T00:19:31.245Z,43.03
2022-12-04T00:21:34.731Z,41.22
2022-12-04T00:23:38.215Z,41.72
2022-12-04T00:25:41.485Z,45.38
2022-12-04T00:27:43.836Z,43.72
2022-12-04T00:29:45.762Z,41.83
2022-12-04T00:31:47.731Z,40.53
2022-12-04T00:33:49.976Z,43.38
2022-12-04T00:35:59.394Z,39.55
2022-12-04T00:38:01.185Z,39.63
2022-12-04T00:40:03.576Z,40.97
2022-12-04T00:42:05.448Z,40.87
2022-12-04T00:44:07.765Z,42.58
2022-12-04T00:46:10.103Z,41.47
2022-12-04T00:48:12.353Z,42.85
2022-12-04T00:50:14.493Z,43.70
2022-12-04T00:52:16.475Z,42.85
2022-12-04T00:54:18.326Z,43.50
2022-12-04T00:56:24.380Z,43.05
2022-12-04T00:58:26.243Z,41.80
2022-12-04T01:00:28.079Z,42.83
2022-12-04T01:02:30.706Z,44.75
2022-12-04T01:04:32.664Z,43.83
2022-12-04T01:06:35.370Z,42.72
2022-12-04T01:08:37.529Z,41.92
2022-12-04T01:10:41.250Z,41.05
2022-12-04T01:12:43.095Z,40.03
2022-12-04T01:14:45.262Z,42.47
2022-12-04T01:16:47.537Z,41.15
2022-12-04T01:18:50.329Z,39.92
2022-12-04T01:20:52.791Z,41.08
2022-12-04T01:22:54.864Z,40.92
2022-12-04T01:24:57.540Z,41.35
2022-12-04T01:26:59.400Z,37.75
2022-12-04T01:29:01.948Z,38.78
2022-12-04T01:35:09.621Z,38.15
2022-12-04T01:37:11.736Z,38.60
2022-12-04T01:39:13.524Z,40.00
2022-12-04T01:41:18.441Z,40.47
2022-12-04T01:43:21.324Z,38.97
2022-12-04T01:45:47.869Z,38.28
2022-12-04T01:47:50.196Z,38.22
2022-12-04T01:49:52.000Z,37.38
2022-12-04T01:52:02.416Z,29.08
2022-12-04T01:54:21.982Z,39.22
2022-12-04T01:56:31.280Z,37.60
2022-12-04T01:58:40.185Z,37.67
2022-12-04T02:00:42.514Z,35.83
2022-12-04T02:02:48.536Z,36.90
2022-12-04T02:04:51.009Z,37.45
2022-12-04T02:06:52.836Z,37.55
2022-12-04T02:08:55.024Z,36.50
2022-12-04T02:11:37.583Z,36.00
2022-12-04T02:13:48.931Z,37.38
2022-12-04T02:15:56.648Z,35.80
2022-12-04T02:18:13.004Z,37.47
2022-12-04T02:20:22.542Z,38.05
2022-12-04T02:22:30.475Z,38.25
2022-12-04T02:24:53.632Z,38.95
2022-12-04T02:29:11.747Z,37.63
2022-12-04T02:31:20.656Z,36.65
2022-12-04T02:33:28.883Z,35.22
2022-12-04T02:35:42.593Z,39.00
2022-12-04T02:37:49.589Z,36.15
2022-12-04T02:39:56.735Z,37.28
2022-12-04T02:42:01.828Z,36.13
2022-12-04T02:44:22.168Z,36.72
2022-12-04T02:46:34.657Z,37.53
2022-12-04T02:48:41.318Z,36.00
2022-12-04T02:50:44.334Z,37.03
2022-12-04T02:54:57.620Z,33.78
2022-12-04T02:57:01.712Z,35.50
2022-12-04T02:59:12.673Z,33.00
2022-12-04T03:01:20.832Z,33.83
2022-12-04T03:03:28.424Z,34.95
2022-12-04T03:05:47.867Z,36.15
2022-12-04T03:07:58.066Z,34.60
2022-12-04T03:10:07.041Z,33.97
2022-12-04T03:12:29.723Z,35.13
2022-12-04T03:14:35.538Z,34.42
2022-12-04T03:16:41.670Z,37.45
2022-12-04T03:19:02.425Z,34.95
2022-12-04T03:21:12.900Z,35.20
2022-12-04T03:23:32.705Z,34.65
2022-12-04T03:25:49.203Z,34.08
2022-12-04T03:28:00.875Z,33.83
2022-12-04T03:30:16.535Z,33.80
2022-12-04T03:32:31.625Z,32.03
2022-12-04T03:34:51.488Z,33.92
2022-12-04T03:36:58.859Z,34.40
2022-12-04T03:39:06.006Z,33.58
2022-12-04T03:41:19.215Z,33.42
2022-12-04T03:43:29.191Z,33.63
2022-12-04T03:45:45.033Z,33.60
2022-12-04T03:47:55.378Z,31.65
2022-12-04T03:50:13.200Z,33.78
2022-12-04T03:52:20.694Z,34.33
2022-12-04T03:54:32.317Z,33.63
2022-12-04T03:56:41.426Z,33.95
2022-12-04T03:58:48.798Z,32.40
2022-12-04T04:00:53.293Z,31.70
2022-12-04T04:03:00.925Z,35.63
2022-12-04T04:05:07.110Z,35.10
2022-12-04T04:07:17.201Z,34.20
2022-12-04T04:09:24.373Z,33.03
2022-12-04T04:11:41.779Z,32.70
2022-12-04T04:14:11.111Z,31.27
2022-12-04T04:16:35.643Z,30.00
2022-12-04T04:18:58.533Z,28.08
2022-12-04T04:21:20.403Z,28.92
2022-12-04T04:23:42.028Z,29.15
2022-12-04T04:25:46.717Z,28.85
2022-12-04T04:27:53.728Z,28.08
2022-12-04T04:29:56.125Z,29.65
2022-12-04T04:34:30.082Z,31.30
2022-12-04T04:36:49.856Z,30.48
2022-12-04T04:39:04.338Z,29.95
2022-12-04T04:41:39.848Z,32.97
2022-12-04T04:43:52.147Z,32.72
2022-12-04T04:46:00.382Z,33.03
2022-12-04T04:48:13.692Z,30.27
2022-12-04T04:50:17.518Z,32.03
2022-12-04T04:52:22.343Z,33.70
2022-12-04T04:54:25.256Z,32.50
2022-12-04T04:56:28.417Z,32.90
2022-12-04T04:58:30.411Z,33.72
2022-12-04T05:00:32.225Z,36.97
2022-12-04T05:02:34.613Z,36.67
2022-12-04T05:04:36.444Z,30.02
2022-12-04T05:06:38.339Z,38.45
2022-12-04T05:08:40.875Z,35.30
2022-12-04T05:10:42.917Z,33.50
2022-12-04T05:12:44.668Z,36.00
2022-12-04T05:14:48.422Z,34.05
2022-12-04T05:16:50.228Z,34.17
2022-12-04T05:19:10.658Z,35.67
2022-12-04T05:21:16.979Z,35.78
2022-12-04T05:23:18.911Z,34.80
2022-12-04T05:25:20.700Z,32.50
2022-12-04T05:27:23.683Z,37.53
2022-12-04T05:29:25.555Z,35.97
2022-12-04T05:31:27.407Z,35.25
2022-12-04T05:33:31.029Z,32.30
2022-12-04T05:35:32.973Z,34.42
2022-12-04T05:37:39.340Z,32.45
2022-12-04T05:39:41.616Z,31.67
2022-12-04T05:41:43.369Z,31.35
2022-12-04T05:43:45.251Z,32.03
2022-12-04T05:45:47.384Z,30.58
2022-12-04T05:47:49.162Z,31.92
2022-12-04T05:49:50.995Z,31.70
2022-12-04T05:51:53.192Z,29.63
2022-12-04T05:53:54.987Z,30.65
2022-12-04T05:55:58.854Z,32.42
2022-12-04T05:58:01.229Z,30.65
2022-12-04T06:00:04.103Z,31.35
2022-12-04T06:02:06.297Z,31.65
2022-12-04T06:04:08.423Z,30.58
2022-12-04T06:06:20.709Z,29.73
2022-12-04T06:10:25.161Z,29.65
2022-12-04T06:12:27.345Z,30.35
2022-12-04T06:14:29.176Z,31.60
2022-12-04T06:16:34.164Z,30.83
2022-12-04T06:18:36.416Z,30.55
2022-12-04T06:20:38.344Z,32.08
2022-12-04T06:22:40.207Z,30.67
2022-12-04T06:24:42.325Z,29.83
2022-12-04T06:27:10.982Z,32.05
2022-12-04T06:29:06.630Z,30.98
2022-12-04T06:31:11.318Z,33.13
2022-12-04T06:33:13.116Z,31.83
2022-12-04T06:35:15.417Z,31.65
2022-12-04T06:37:17.259Z,30.83
2022-12-04T06:39:19.333Z,31.17
2022-12-04T06:41:22.289Z,32.13
2022-12-04T06:43:24.677Z,34.10
2022-12-04T06:45:26.591Z,31.50
2022-12-04T06:47:28.831Z,32.38
2022-12-04T06:49:30.824Z,31.50
2022-12-04T06:51:35.623Z,32.37
2022-12-04T06:53:38.204Z,31.75
2022-12-04T06:55:40.116Z,33.33
2022-12-04T06:57:41.877Z,33.35
2022-12-04T06:59:44.045Z,33.30
2022-12-04T07:01:45.948Z,30.63
2022-12-04T07:03:51.602Z,31.08
2022-12-04T07:05:54.101Z,31.05
2022-12-04T07:07:55.942Z,32.33
2022-12-04T07:09:58.287Z,32.20
2022-12-04T07:12:00.618Z,30.02
2022-12-04T07:14:03.408Z,33.33
2022-12-04T07:16:08.040Z,31.17
2022-12-04T07:18:10.310Z,30.10
2022-12-04T07:20:12.528Z,32.03
2022-12-04T07:22:14.783Z,30.45
2022-12-04T07:24:17.666Z,30.67
2022-12-04T07:28:21.996Z,28.77
2022-12-04T07:30:23.868Z,29.23
2022-12-04T07:32:25.671Z,32.85
2022-12-04T07:34:27.828Z,29.60
2022-12-04T07:36:29.592Z,31.35
2022-12-04T07:38:32.468Z,30.88
2022-12-04T07:40:34.636Z,29.17
2022-12-04T07:42:36.423Z,29.77
2022-12-04T07:44:38.641Z,28.35
2022-12-04T07:46:40.468Z,26.65
2022-12-04T07:48:43.022Z,29.23
2022-12-04T07:50:45.273Z,29.73
2022-12-04T07:52:47.023Z,29.40
2022-12-04T07:54:49.483Z,27.60
2022-12-04T07:56:51.632Z,30.45
2022-12-04T07:58:53.876Z,31.38
2022-12-04T08:00:55.731Z,29.67
2022-12-04T08:02:57.742Z,28.88
2022-12-04T08:04:59.918Z,29.92
2022-12-04T08:07:01.850Z,28.77
2022-12-04T08:09:09.715Z,30.17
2022-12-04T08:11:15.121Z,29.13
2022-12-04T08:13:16.905Z,28.40
2022-12-04T08:15:19.185Z,29.58
2022-12-04T08:17:21.050Z,29.73
2022-12-04T08:19:23.430Z,28.33
2022-12-04T08:21:28.168Z,29.48
2022-12-04T08:23:30.005Z,27.92
2022-12-04T08:25:32.148Z,29.55
2022-12-04T08:27:34.815Z,28.77
2022-12-04T08:29:37.010Z,29.83
2022-12-04T08:31:39.187Z,29.45
2022-12-04T08:33:43.252Z,30.52
2022-12-04T08:35:45.101Z,29.05
2022-12-04T08:37:47.260Z,28.65
2022-12-04T08:39:49.437Z,29.17
2022-12-04T08:41:55.407Z,28.67
2022-12-04T08:43:59.704Z,26.67
2022-12-04T08:46:05.021Z,28.95
2022-12-04T08:48:07.078Z,29.23
2022-12-04T08:50:09.594Z,28.23
2022-12-04T08:52:11.649Z,31.55
2022-12-04T08:54:13.807Z,27.83
2022-12-04T08:56:15.667Z,28.65
2022-12-04T08:58:17.638Z,29.88
2022-12-04T09:00:20.172Z,29.33
2022-12-04T09:02:21.965Z,28.38
2022-12-04T09:04:24.234Z,28.60
2022-12-04T09:06:26.482Z,29.63
2022-12-04T09:08:28.779Z,29.27
2022-12-04T09:10:30.938Z,28.90
2022-12-04T09:12:32.730Z,28.63
2022-12-04T09:14:34.946Z,28.35
2022-12-04T09:16:36.786Z,25.15
2022-12-04T09:18:39.611Z,27.20
2022-12-04T09:20:41.912Z,28.60
2022-12-04T09:23:02.714Z,28.25
2022-12-04T09:25:06.467Z,28.05
2022-12-04T09:27:14.300Z,29.50
2022-12-04T09:29:16.925Z,40.40
2022-12-04T09:31:20.061Z,28.83
2022-12-04T09:33:22.071Z,28.25
2022-12-04T09:35:24.621Z,28.88
2022-12-04T09:37:26.450Z,28.70
2022-12-04T09:39:28.604Z,29.02
2022-12-04T09:41:36.439Z,28.23
2022-12-04T09:43:51.395Z,28.35
2022-12-04T09:45:58.600Z,27.52
2022-12-04T09:48:01.388Z,29.98
2022-12-04T09:50:21.683Z,27.05
2022-12-04T09:52:47.250Z,28.80
2022-12-04T09:54:52.076Z,28.10
2022-12-04T09:56:59.285Z,29.42
2022-12-04T09:59:12.911Z,29.58
2022-12-04T10:01:26.976Z,28.50
2022-12-04T10:03:30.602Z,27.63
2022-12-04T10:05:45.947Z,28.23
2022-12-04T10:08:25.038Z,26.55
2022-12-04T10:10:37.166Z,27.55
2022-12-04T10:12:59.448Z,28.67
2022-12-04T10:15:07.463Z,29.88
2022-12-04T10:17:32.439Z,27.83
2022-12-04T10:19:42.567Z,28.10
2022-12-04T10:22:02.210Z,27.92
2022-12-04T10:24:33.694Z,27.75
2022-12-04T10:26:44.051Z,27.05
2022-12-04T10:29:01.755Z,27.27
2022-12-04T10:31:06.244Z,27.58
2022-12-04T10:33:28.246Z,27.35
2022-12-04T10:35:35.343Z,27.35
2022-12-04T10:37:41.751Z,27.42
2022-12-04T10:39:58.369Z,27.75
2022-12-04T10:42:19.575Z,28.13
2022-12-04T10:44:21.639Z,27.60
2022-12-04T10:46:29.693Z,21.15
2022-12-04T10:48:36.721Z,27.70
2022-12-04T10:50:40.541Z,27.15
2022-12-04T10:52:42.364Z,26.50
2022-12-04T10:54:51.954Z,28.35
2022-12-04T10:57:02.227Z,25.58
2022-12-04T10:59:05.918Z,29.45
2022-12-04T11:01:16.790Z,29.50
2022-12-04T11:03:27.698Z,27.23
2022-12-04T11:05:46.342Z,26.15
2022-12-04T11:07:49.551Z,29.23
2022-12-04T11:12:16.967Z,27.65
2022-12-04T11:14:23.115Z,29.27
2022-12-04T11:16:40.571Z,30.08
2022-12-04T11:18:49.162Z,28.85
2022-12-04T11:21:22.830Z,30.73
2022-12-04T11:23:26.712Z,28.55
2022-12-04T11:25:37.042Z,30.48
2022-12-04T11:27:39.218Z,28.63
2022-12-04T11:29:45.951Z,30.33
2022-12-04T11:31:50.936Z,29.05
2022-12-04T11:33:57.712Z,28.92
2022-12-04T11:36:04.401Z,29.50
2022-12-04T11:38:17.681Z,33.45
2022-12-04T11:40:20.851Z,29.38
2022-12-04T11:42:30.808Z,29.55
2022-12-04T11:44:35.886Z,29.00
2022-12-04T11:46:37.728Z,31.92
2022-12-04T11:48:45.243Z,30.35
2022-12-04T11:51:13.877Z,28.67
2022-12-04T11:53:21.989Z,28.33
2022-12-04T11:55:52.137Z,30.85
2022-12-04T11:58:16.952Z,31.08
2022-12-04T12:00:23.538Z,32.08
2022-12-04T12:02:36.364Z,30.58
2022-12-04T12:05:08.268Z,30.95
2022-12-04T12:07:30.546Z,31.77
2022-12-04T12:09:55.864Z,31.80
2022-12-04T12:12:21.935Z,30.58
2022-12-04T12:14:44.626Z,29.40
2022-12-04T12:19:17.179Z,31.88
2022-12-04T12:21:52.874Z,30.85
2022-12-04T12:24:09.887Z,29.92
2022-12-04T12:26:15.089Z,28.98
2022-12-04T12:28:34.602Z,28.45
2022-12-04T12:30:42.893Z,30.60
2022-12-04T12:32:58.355Z,31.65
2022-12-04T12:35:00.927Z,30.77
2022-12-04T12:39:40.330Z,27.88
2022-12-04T12:41:53.237Z,29.15
2022-12-04T12:44:04.919Z,27.13
2022-12-04T12:46:14.362Z,29.10
2022-12-04T12:48:35.876Z,29.42
2022-12-04T12:51:08.868Z,29.35
2022-12-04T12:55:31.302Z,28.27
2022-12-04T12:57:39.545Z,31.13
2022-12-04T12:59:47.697Z,31.85
2022-12-04T13:02:03.559Z,32.13
2022-12-04T13:04:23.661Z,30.67
2022-12-04T13:06:31.748Z,30.33
2022-12-04T13:08:53.778Z,29.83
2022-12-04T13:11:18.051Z,28.65
2022-12-04T13:13:30.062Z,29.45
2022-12-04T13:15:42.380Z,28.30
2022-12-04T13:17:46.859Z,28.83
2022-12-04T13:19:54.086Z,29.77
2022-12-04T13:22:11.167Z,28.02
2022-12-04T13:24:35.157Z,28.25
2022-12-04T13:26:49.936Z,29.33
2022-12-04T13:29:01.621Z,26.17
2022-12-04T13:31:09.446Z,30.10
2022-12-04T13:33:32.826Z,27.38
2022-12-04T13:35:34.554Z,28.33
2022-12-04T13:38:13.168Z,28.40
2022-12-04T13:40:29.378Z,29.38
2022-12-04T13:42:32.065Z,29.10
2022-12-04T13:44:35.709Z,29.25
2022-12-04T13:46:42.666Z,28.65
2022-12-04T13:48:44.434Z,28.77
2022-12-04T13:50:46.261Z,29.02
2022-12-04T13:52:49.470Z,29.02
2022-12-04T13:54:59.428Z,28.27
2022-12-04T13:57:30.440Z,27.38
2022-12-04T13:59:37.336Z,28.48
2022-12-04T14:01:44.856Z,27.30
2022-12-04T14:03:49.920Z,27.45
2022-12-04T14:05:52.834Z,28.73
2022-12-04T14:08:07.730Z,28.10
2022-12-04T14:10:15.634Z,26.77
2022-12-04T14:12:18.390Z,26.42
2022-12-04T14:14:31.758Z,26.95
2022-12-04T14:16:42.367Z,26.80
2022-12-04T14:18:51.119Z,26.20
2022-12-04T14:21:02.090Z,26.92
2022-12-04T14:23:26.687Z,27.80
2022-12-04T14:25:39.249Z,25.88
2022-12-04T14:27:41.090Z,26.05
2022-12-04T14:29:54.726Z,25.23
2022-12-04T14:32:00.792Z,26.15
2022-12-04T14:34:27.267Z,24.73
2022-12-04T14:36:36.338Z,24.77
2022-12-04T14:38:38.957Z,26.38
2022-12-04T14:40:49.293Z,26.15
2022-12-04T14:42:52.491Z,25.60
2022-12-04T14:45:00.338Z,25.02
2022-12-04T14:47:23.087Z,25.50
2022-12-04T14:49:46.809Z,23.10
2022-12-04T14:52:03.330Z,26.30
2022-12-04T14:54:26.863Z,25.25
2022-12-04T14:56:54.385Z,23.80
2022-12-04T14:58:57.934Z,24.23
2022-12-04T15:01:33.494Z,25.08
2022-12-04T15:03:43.087Z,25.48
2022-12-04T15:05:45.423Z,24.95
2022-12-04T15:07:54.631Z,24.00
2022-12-04T15:10:17.486Z,24.92
2022-12-04T15:12:35.637Z,23.60
2022-12-04T15:14:51.943Z,25.90
2022-12-04T15:17:02.911Z,24.60
2022-12-04T15:19:05.231Z,26.27
2022-12-04T15:21:12.758Z,27.45
2022-12-04T15:23:18.991Z,26.10
2022-12-04T15:25:31.618Z,25.55
2022-12-04T15:27:35.100Z,25.92
2022-12-04T15:29:41.454Z,27.17
2022-12-04T15:31:49.236Z,26.48
2022-12-04T15:33:55.483Z,26.40
2022-12-04T15:36:08.590Z,27.58
2022-12-04T15:38:14.663Z,27.88
2022-12-04T15:40:24.607Z,29.17
2022-12-04T15:42:29.194Z,28.58
2022-12-04T15:44:34.681Z,27.40
2022-12-04T15:46:38.390Z,28.88
2022-12-04T15:48:43.883Z,27.35
2022-12-04T15:50:56.543Z,30.27
2022-12-04T15:53:06.335Z,28.23
2022-12-04T15:55:09.239Z,27.13
2022-12-04T15:57:23.297Z,27.13
2022-12-04T15:59:27.212Z,27.15
2022-12-04T16:01:39.883Z,28.75
2022-12-04T16:03:42.161Z,29.65
2022-12-04T16:05:44.017Z,26.92
2022-12-04T16:07:50.073Z,25.85
2022-12-04T16:10:02.586Z,27.33
2022-12-04T16:12:18.961Z,26.13
2022-12-04T16:14:21.270Z,28.20
2022-12-04T16:16:23.180Z,26.73
2022-12-04T16:18:25.227Z,25.13
2022-12-04T16:20:27.622Z,25.90
2022-12-04T16:22:31.461Z,26.03
2022-12-04T16:24:33.994Z,25.15
2022-12-04T16:26:35.873Z,24.67
2022-12-04T16:28:37.678Z,25.58
2022-12-04T16:30:39.971Z,25.45
2022-12-04T16:32:41.798Z,25.10
2022-12-04T16:34:44.553Z,26.35
2022-12-04T16:36:46.536Z,25.97
2022-12-04T16:38:48.734Z,25.42
2022-12-04T16:40:50.554Z,25.52
2022-12-04T16:42:53.672Z,23.98
2022-12-04T16:44:57.758Z,25.95
2022-12-04T16:46:59.847Z,25.92
2022-12-04T16:49:07.216Z,25.85
2022-12-04T16:51:17.798Z,25.50
2022-12-04T16:53:22.471Z,26.90
2022-12-04T16:55:30.953Z,27.63
2022-12-04T16:57:32.739Z,26.73
2022-12-04T16:59:35.803Z,25.88
2022-12-04T17:01:47.461Z,26.92
2022-12-04T17:03:50.231Z,26.45
2022-12-04T17:05:52.427Z,26.58
2022-12-04T17:07:56.159Z,26.15
2022-12-04T17:09:58.671Z,24.98
2022-12-04T17:12:00.449Z,25.40
2022-12-04T17:14:07.010Z,25.83
2022-12-04T17:16:10.631Z,26.45
2022-12-04T17:18:20.745Z,26.45
2022-12-04T17:20:23.262Z,25.95
2022-12-04T17:22:28.203Z,24.70
2022-12-04T17:24:29.986Z,23.20
2022-12-04T17:26:32.250Z,22.65
2022-12-04T17:28:34.587Z,22.58
2022-12-04T17:30:36.729Z,23.90
2022-12-04T17:32:39.023Z,23.63
2022-12-04T17:34:40.814Z,22.52
2022-12-04T17:36:42.735Z,24.35
2022-12-04T17:38:45.359Z,23.92
2022-12-04T17:41:01.215Z,24.30
2022-12-04T17:43:03.343Z,22.27
2022-12-04T17:45:06.190Z,23.95
2022-12-04T17:47:08.093Z,24.85
2022-12-04T17:49:10.048Z,25.77
2022-12-04T17:51:15.915Z,24.33
2022-12-04T17:53:18.022Z,23.00
2022-12-04T17:55:19.846Z,23.52
2022-12-04T17:57:22.618Z,24.60
2022-12-04T17:59:24.798Z,24.13
2022-12-04T18:01:28.467Z,23.45
2022-12-04T18:03:30.827Z,23.08
2022-12-04T18:05:33.019Z,22.67
2022-12-04T18:07:34.849Z,18.98
2022-12-04T18:09:37.311Z,23.27
2022-12-04T18:11:41.586Z,22.83
2022-12-04T18:13:43.529Z,23.30
2022-12-04T18:15:45.704Z,22.33
2022-12-04T18:17:47.589Z,22.30
2022-12-04T18:19:49.708Z,21.05
2022-12-04T18:21:52.125Z,22.42
2022-12-04T18:23:57.664Z,23.88
2022-12-04T18:26:01.400Z,23.33
2022-12-04T18:28:03.703Z,22.77
2022-12-04T18:30:06.819Z,22.95
2022-12-04T18:32:09.282Z,21.40
2022-12-04T18:34:11.504Z,21.23
2022-12-04T18:36:22.043Z,21.50
2022-12-04T18:38:27.249Z,22.23
2022-12-04T18:40:29.415Z,21.33
2022-12-04T18:42:31.742Z,16.60
2022-12-04T18:44:33.609Z,23.10
2022-12-04T18:46:35.993Z,21.48
2022-12-04T18:48:38.990Z,22.90
2022-12-04T18:52:44.813Z,22.42
2022-12-04T18:54:46.627Z,23.08
2022-12-04T18:56:50.061Z,23.33
2022-12-04T18:58:58.389Z,21.95
2022-12-04T19:01:06.691Z,23.50
2022-12-04T19:03:10.895Z,23.48
2022-12-04T19:05:13.287Z,21.42
2022-12-04T19:09:20.548Z,23.20
2022-12-04T19:11:22.410Z,21.42
2022-12-04T19:13:25.643Z,21.23
2022-12-04T19:15:27.453Z,21.77
2022-12-04T19:17:29.578Z,21.15
2022-12-04T19:19:32.860Z,23.33
2022-12-04T19:21:34.711Z,20.50
2022-12-04T19:23:36.957Z,22.63
2022-12-04T19:25:38.909Z,19.58
2022-12-04T19:27:40.717Z,21.38
2022-12-04T19:29:43.539Z,22.75
2022-12-04T19:31:46.654Z,21.83
2022-12-04T19:33:48.486Z,22.60
2022-12-04T19:36:09.287Z,23.48
2022-12-04T19:38:11.111Z,23.58
2022-12-04T19:40:16.645Z,25.67
2022-12-04T19:42:18.466Z,22.17
2022-12-04T19:44:47.941Z,19.90
2022-12-04T19:46:45.184Z,18.30
2022-12-04T19:48:52.967Z,23.45
2022-12-04T19:50:54.864Z,23.90
2022-12-04T19:52:56.793Z,23.27
2022-12-04T19:55:01.100Z,21.92
2022-12-04T19:57:03.087Z,23.48
2022-12-04T19:59:07.267Z,22.48
2022-12-04T20:01:12.845Z,22.67
2022-12-04T20:03:14.763Z,23.55
2022-12-04T20:05:16.631Z,24.45
2022-12-04T20:07:21.510Z,23.95
2022-12-04T20:09:24.804Z,23.30
2022-12-04T20:11:28.582Z,24.45
2022-12-04T20:13:30.922Z,23.40
2022-12-04T20:15:39.200Z,21.13
2022-12-04T20:17:40.947Z,22.17
2022-12-04T20:19:43.154Z,23.35
2022-12-04T20:21:46.214Z,31.65
2022-12-04T20:23:50.053Z,24.52
2022-12-04T20:25:55.071Z,24.10
2022-12-04T20:27:57.188Z,23.08
2022-12-04T20:29:59.215Z,22.17
2022-12-04T20:32:01.548Z,22.80
2022-12-04T20:34:06.667Z,25.10
2022-12-04T20:36:10.413Z,25.85
2022-12-04T20:38:13.514Z,25.05
2022-12-04T20:40:15.496Z,25.63
2022-12-04T20:42:17.692Z,24.52
2022-12-04T20:44:20.839Z,25.33
2022-12-04T20:46:25.093Z,24.25
2022-12-04T20:48:28.918Z,24.38
2022-12-04T20:50:33.185Z,25.65
2022-12-04T20:52:35.382Z,25.23
2022-12-04T20:54:41.548Z,25.38
2022-12-04T20:56:44.116Z,27.05
2022-12-04T20:58:46.297Z,25.75
2022-12-04T21:00:48.530Z,25.77
2022-12-04T21:02:52.854Z,24.42
2022-12-04T21:04:55.162Z,26.23
2022-12-04T21:06:57.759Z,25.80
2022-12-04T21:09:02.152Z,26.42
2022-12-04T21:11:04.507Z,26.23
2022-12-04T21:13:25.858Z,23.48
2022-12-04T21:15:46.969Z,25.33
2022-12-04T21:17:48.912Z,25.65
2022-12-04T21:19:51.161Z,26.08
2022-12-04T21:21:53.761Z,26.30
2022-12-04T21:23:55.550Z,24.52
2022-12-04T21:25:57.763Z,25.63
2022-12-04T21:27:59.599Z,24.73
2022-12-04T21:30:03.786Z,23.38
2022-12-04T21:32:07.032Z,23.15
2022-12-04T21:34:11.435Z,23.58
2022-12-04T21:36:14.262Z,23.80
2022-12-04T21:38:16.098Z,24.25
2022-12-04T21:40:18.057Z,24.25
2022-12-04T21:42:32.809Z,24.85
2022-12-04T21:44:36.236Z,24.30
2022-12-04T21:46:38.592Z,24.35
2022-12-04T21:48:40.933Z,24.60
2022-12-04T21:50:44.975Z,24.45
2022-12-04T21:52:47.240Z,23.35
2022-12-04T21:54:50.702Z,23.77
2022-12-04T21:56:52.505Z,22.92
2022-12-04T21:58:55.303Z,22.48
2022-12-04T22:00:57.095Z,23.08
2022-12-04T22:02:59.829Z,22.05
2022-12-04T22:05:03.530Z,22.20
2022-12-04T22:07:11.590Z,20.40
2022-12-04T22:09:15.451Z,22.13
2022-12-04T22:11:18.807Z,20.63
2022-12-04T22:13:20.844Z,22.17
2022-12-04T22:15:22.670Z,21.63
2022-12-04T22:17:29.627Z,21.88
2022-12-04T22:19:33.147Z,19.98
2022-12-04T22:21:35.512Z,21.67
2022-12-04T22:23:37.866Z,21.90
2022-12-04T22:25:39.757Z,21.50
2022-12-04T22:27:41.568Z,21.63
2022-12-04T22:29:51.504Z,22.67
2022-12-04T22:31:55.798Z,21.70
2022-12-04T22:34:00.661Z,19.70
2022-12-04T22:36:11.350Z,20.77
2022-12-04T22:38:13.172Z,22.27
2022-12-04T22:40:15.707Z,21.15
2022-12-04T22:42:17.594Z,22.77
2022-12-04T22:44:19.359Z,19.23
2022-12-04T22:46:21.714Z,21.17
2022-12-04T22:48:24.840Z,20.50
2022-12-04T22:50:26.659Z,21.05
2022-12-04T22:52:32.397Z,20.58
2022-12-04T22:54:34.234Z,20.90
2022-12-04T22:56:36.098Z,21.58
2022-12-04T22:58:39.058Z,21.92
2022-12-04T23:00:40.942Z,23.52
2022-12-04T23:02:42.774Z,22.90
2022-12-04T23:04:45.205Z,22.10
2022-12-04T23:06:47.045Z,22.93
2022-12-04T23:08:49.517Z,22.60
2022-12-04T23:10:51.730Z,22.20
2022-12-04T23:12:53.535Z,21.45
2022-12-04T23:14:55.358Z,21.25
2022-12-04T23:16:57.552Z,22.80
2022-12-04T23:18:59.419Z,23.23
2022-12-04T23:21:10.106Z,23.30
2022-12-04T23:23:12.291Z,22.08
2022-12-04T23:25:15.125Z,22.37
2022-12-04T23:27:17.264Z,22.85
2022-12-04T23:29:44.973Z,23.23
2022-12-04T23:31:41.271Z,22.13
2022-12-04T23:33:43.319Z,22.55
2022-12-04T23:35:45.213Z,23.00
2022-12-04T23:37:47.335Z,21.83
2022-12-04T23:39:49.181Z,20.83
2022-12-04T23:41:51.020Z,23.15
2022-12-04T23:43:54.227Z,22.40
2022-12-04T23:45:56.442Z,23.23
2022-12-04T23:47:58.347Z,23.88
2022-12-04T23:50:00.723Z,22.98
2022-12-04T23:52:02.473Z,22.80
2022-12-04T23:54:04.508Z,23.00
2022-12-04T23:56:12.894Z,24.42
2022-12-04T23:58:14.659Z,23.90
